createdAt,value
2018-04-24T00:01:17.224Z,95221.42
2018-04-24T00:04:20.502Z,95217.97
2018-04-24T00:07:23.768Z,95216.42
2018-04-24T00:10:27.041Z,95223.83
2018-04-24T00:13:30.878Z,95220.72
2018-04-24T00:16:35.145Z,95216.05
2018-04-24T00:19:38.460Z,95219.17
2018-04-24T00:22:42.521Z,95216.82
2018-04-24T00:25:45.794Z,95219.34
2018-04-24T00:28:49.082Z,95223.01
2018-04-24T00:31:52.337Z,95227.45
2018-04-24T00:34:55.608Z,95227.90
2018-04-24T00:37:58.874Z,95220.83
2018-04-24T00:41:02.123Z,95218.16
2018-04-24T00:44:05.395Z,95220.64
2018-04-24T00:47:09.481Z,95229.42
2018-04-24T00:50:12.744Z,95225.59
2018-04-24T00:53:33.728Z,95228.02
2018-04-24T00:56:36.923Z,95224.08
2018-04-24T00:59:40.179Z,95226.44
2018-04-24T01:02:44.191Z,95224.45
2018-04-24T01:05:48.209Z,95227.22
2018-04-24T01:08:51.476Z,95231.70
2018-04-24T01:11:54.741Z,95236.95
2018-04-24T01:14:58.005Z,95240.29
2018-04-24T01:18:01.267Z,95238.98
2018-04-24T01:21:04.531Z,95240.30
2018-04-24T01:24:09.809Z,95242.48
2018-04-24T01:27:13.096Z,95240.64
2018-04-24T01:30:16.351Z,95238.59
2018-04-24T01:33:19.647Z,95241.97
2018-04-24T01:36:22.904Z,95243.25
2018-04-24T01:39:26.980Z,95246.20
2018-04-24T01:42:31.913Z,95252.00
2018-04-24T01:45:35.184Z,95249.66
2018-04-24T01:48:38.464Z,95251.16
2018-04-24T01:51:42.500Z,95251.83
2018-04-24T01:54:45.776Z,95261.05
2018-04-24T01:57:49.821Z,95262.56
2018-04-24T02:00:53.094Z,95261.41
2018-04-24T02:03:59.443Z,95263.56
2018-04-24T02:07:02.693Z,95265.13
2018-04-24T02:10:05.957Z,95271.91
2018-04-24T02:13:10.121Z,95268.30
2018-04-24T02:16:13.394Z,95271.99
2018-04-24T02:19:17.446Z,95275.72
2018-04-24T02:22:20.698Z,95272.01
2018-04-24T02:25:23.966Z,95270.05
2018-04-24T02:28:27.213Z,95272.06
2018-04-24T02:31:30.474Z,95272.73
2018-04-24T02:34:34.511Z,95277.28
2018-04-24T02:37:37.762Z,95282.00
2018-04-24T02:40:41.026Z,95280.61
2018-04-24T02:43:44.286Z,95279.78
2018-04-24T02:46:47.543Z,95271.88
2018-04-24T02:49:50.813Z,95276.66
2018-04-24T02:52:55.930Z,95285.08
2018-04-24T02:55:59.572Z,95284.11
2018-04-24T02:59:02.876Z,95283.61
2018-04-24T03:02:06.226Z,95283.08
2018-04-24T03:05:09.534Z,95289.89
2018-04-24T03:08:16.428Z,95287.05
2018-04-24T03:11:19.744Z,95283.44
2018-04-24T03:14:23.266Z,95282.99
2018-04-24T03:17:26.532Z,95279.51
2018-04-24T03:20:29.896Z,95284.16
2018-04-24T03:23:33.926Z,95281.87
2018-04-24T03:26:37.193Z,95282.83
2018-04-24T03:29:41.213Z,95291.14
2018-04-24T03:32:45.243Z,95286.45
2018-04-24T03:35:48.527Z,95284.77
2018-04-24T03:38:52.558Z,95289.77
2018-04-24T03:41:55.815Z,95292.53
2018-04-24T03:44:59.088Z,95293.25
2018-04-24T03:48:02.360Z,95295.11
2018-04-24T03:51:05.639Z,95289.45
2018-04-24T03:54:08.925Z,95298.39
2018-04-24T03:57:12.429Z,95294.78
2018-04-24T04:00:16.466Z,95288.22
2018-04-24T04:03:19.755Z,95291.78
2018-04-24T04:06:23.778Z,95289.22
2018-04-24T04:09:27.062Z,95293.36
2018-04-24T04:12:31.132Z,95299.56
2018-04-24T04:15:34.404Z,95294.67
2018-04-24T04:18:56.986Z,95298.78
2018-04-24T04:25:41.000Z,95296.20
2018-04-24T04:28:45.074Z,95300.51
2018-04-24T04:31:48.343Z,95302.01
2018-04-24T04:34:51.940Z,95302.62
2018-04-24T04:37:55.260Z,95310.98
2018-04-24T04:40:58.625Z,95314.55
2018-04-24T04:44:01.970Z,95326.92
2018-04-24T04:47:05.423Z,95324.28
2018-04-24T04:50:08.709Z,95325.33
2018-04-24T04:53:13.885Z,95327.58
2018-04-24T04:56:18.646Z,95326.21
2018-04-24T04:59:21.947Z,95323.31
2018-04-24T05:02:25.369Z,95328.69
2018-04-24T05:05:28.683Z,95340.66
2018-04-24T05:08:32.739Z,95336.83
2018-04-24T05:11:36.001Z,95337.50
2018-04-24T05:14:39.317Z,95345.23
2018-04-24T05:17:42.592Z,95345.13
2018-04-24T05:20:46.707Z,95345.00
2018-04-24T05:23:50.858Z,95345.52
2018-04-24T05:26:54.135Z,95345.77
2018-04-24T05:29:57.396Z,95344.50
2018-04-24T05:33:00.695Z,95344.03
2018-04-24T05:36:03.985Z,95332.78
2018-04-24T05:39:07.258Z,95334.74
2018-04-24T05:42:11.636Z,95333.67
2018-04-24T05:45:15.707Z,95338.64
2018-04-24T05:48:19.014Z,95344.23
2018-04-24T05:51:22.269Z,95344.11
2018-04-24T05:54:25.606Z,95338.52
2018-04-24T05:57:28.887Z,95341.57
2018-04-24T06:00:32.195Z,95345.34
2018-04-24T06:03:35.466Z,95350.52
2018-04-24T06:06:38.726Z,95344.61
2018-04-24T06:09:42.762Z,95347.88
2018-04-24T06:12:46.018Z,95341.88
2018-04-24T06:15:49.298Z,95339.97
2018-04-24T06:18:52.581Z,95345.06
2018-04-24T06:21:55.838Z,95348.00
2018-04-24T06:24:59.858Z,95346.95
2018-04-24T06:28:03.887Z,95342.38
2018-04-24T06:31:07.150Z,95339.38
2018-04-24T06:34:11.091Z,95342.78
2018-04-24T06:37:15.231Z,95342.47
2018-04-24T06:40:18.528Z,95342.13
2018-04-24T06:43:21.803Z,95348.14
2018-04-24T06:46:25.836Z,95343.63
2018-04-24T06:49:29.097Z,95341.05
2018-04-24T06:52:33.130Z,95337.78
2018-04-24T06:55:36.411Z,95334.03
2018-04-24T06:58:39.683Z,95334.38
2018-04-24T07:01:42.937Z,95337.52
2018-04-24T07:04:47.220Z,95335.48
2018-04-24T07:07:50.487Z,95331.57
2018-04-24T07:10:53.815Z,95335.55
2018-04-24T07:13:57.105Z,95345.63
2018-04-24T07:17:00.379Z,95343.97
2018-04-24T07:20:03.678Z,95352.25
2018-04-24T07:23:07.014Z,95342.27
2018-04-24T07:26:10.299Z,95348.05
2018-04-24T07:29:13.579Z,95343.54
2018-04-24T07:32:16.842Z,95347.20
2018-04-24T07:35:20.153Z,95354.77
2018-04-24T07:38:23.444Z,95364.02
2018-04-24T07:41:26.710Z,95365.38
2018-04-24T07:44:29.992Z,95365.95
2018-04-24T07:47:34.075Z,95361.89
2018-04-24T07:50:37.545Z,95367.89
2018-04-24T07:53:41.078Z,95365.38
2018-04-24T07:56:44.376Z,95357.83
2018-04-24T07:59:47.637Z,95355.60
2018-04-24T08:02:50.951Z,95353.03
2018-04-24T08:05:54.231Z,95346.14
2018-04-24T08:08:57.506Z,95352.89
2018-04-24T08:12:01.540Z,95346.30
2018-04-24T08:15:04.962Z,95353.17
2018-04-24T08:18:08.250Z,95342.84
2018-04-24T08:21:11.557Z,95339.56
2018-04-24T08:24:14.810Z,95340.85
2018-04-24T08:27:18.865Z,95330.84
2018-04-24T08:30:22.138Z,95325.66
2018-04-24T08:33:26.452Z,95326.03
2018-04-24T08:36:30.490Z,95318.42
2018-04-24T08:39:33.767Z,95314.05
2018-04-24T08:42:37.795Z,95306.53
2018-04-24T08:45:41.949Z,95309.78
2018-04-24T08:48:45.990Z,95312.86
2018-04-24T08:51:49.262Z,95313.54
2018-04-24T08:54:53.286Z,95318.34
2018-04-24T08:57:56.762Z,95315.41
2018-04-24T09:01:00.013Z,95310.36
2018-04-24T09:04:04.127Z,95307.41
2018-04-24T09:07:08.167Z,95292.44
2018-04-24T09:10:11.437Z,95293.94
2018-04-24T09:13:14.723Z,95293.88
2018-04-24T09:16:18.927Z,95287.64
2018-04-24T09:19:22.202Z,95285.77
2018-04-24T09:22:25.484Z,95282.41
2018-04-24T09:25:28.751Z,95285.17
2018-04-24T09:28:32.801Z,95280.41
2018-04-24T09:31:41.619Z,95274.79
2018-04-24T09:34:44.894Z,95271.20
2018-04-24T09:37:49.018Z,95278.57
2018-04-24T09:40:53.047Z,95268.75
2018-04-24T09:43:56.333Z,95270.27
2018-04-24T09:47:00.368Z,95261.95
2018-04-24T09:50:03.681Z,95262.17
2018-04-24T09:53:06.950Z,95259.05
2018-04-24T09:56:10.209Z,95267.74
2018-04-24T09:59:13.665Z,95260.77
2018-04-24T10:02:17.345Z,95262.22
2018-04-24T10:05:20.867Z,95255.27
2018-04-24T10:08:24.146Z,95253.20
2018-04-24T10:11:28.291Z,95248.54
2018-04-24T10:14:31.582Z,95243.45
2018-04-24T10:17:34.867Z,95249.17
2018-04-24T10:20:38.137Z,95248.09
2018-04-24T10:23:42.178Z,95233.59
2018-04-24T10:26:45.431Z,95230.37
2018-04-24T10:29:48.695Z,95227.88
2018-04-24T10:32:52.003Z,95224.02
2018-04-24T10:35:56.041Z,95215.08
2018-04-24T10:38:59.318Z,95219.07
2018-04-24T10:42:02.571Z,95218.63
2018-04-24T10:45:05.842Z,95209.95
2018-04-24T10:48:09.215Z,95201.34
2018-04-24T10:51:12.468Z,95211.67
2018-04-24T10:54:15.872Z,95209.34
2018-04-24T10:57:19.125Z,95199.67
2018-04-24T11:00:22.395Z,95200.50
2018-04-24T11:03:25.651Z,95193.88
2018-04-24T11:06:29.689Z,95194.54
2018-04-24T11:09:33.009Z,95199.33
2018-04-24T11:12:36.269Z,95198.92
2018-04-24T11:15:39.601Z,95197.21
2018-04-24T11:18:43.713Z,95188.31
2018-04-24T11:21:46.978Z,95184.02
2018-04-24T11:24:50.249Z,95177.22
2018-04-24T11:27:53.513Z,95169.40
2018-04-24T11:30:56.799Z,95161.28
2018-04-24T11:34:00.064Z,95164.33
2018-04-24T11:37:04.111Z,95169.31
2018-04-24T11:40:07.691Z,95166.16
2018-04-24T11:43:10.986Z,95160.89
2018-04-24T11:46:15.017Z,95163.22
2018-04-24T11:49:19.721Z,95169.21
2018-04-24T11:52:23.746Z,95162.67
2018-04-24T11:55:27.779Z,95159.03
2018-04-24T11:58:31.085Z,95160.87
2018-04-24T12:01:34.374Z,95151.30
2018-04-24T12:04:37.642Z,95152.78
2018-04-24T12:07:41.655Z,95143.77
2018-04-24T12:10:45.678Z,95145.98
2018-04-24T12:13:49.703Z,95148.40
2018-04-24T12:16:52.954Z,95147.73
2018-04-24T12:19:56.223Z,95138.46
2018-04-24T12:22:59.707Z,95142.27
2018-04-24T12:26:02.971Z,95136.53
2018-04-24T12:29:07.001Z,95140.59
2018-04-24T12:32:11.053Z,95142.52
2018-04-24T12:35:14.347Z,95136.94
2018-04-24T12:38:17.617Z,95127.84
2018-04-24T12:41:20.924Z,95129.78
2018-04-24T12:44:24.197Z,95116.00
2018-04-24T12:47:28.229Z,95122.98
2018-04-24T12:50:31.486Z,95117.42
2018-04-24T12:53:34.871Z,95112.56
2018-04-24T12:56:38.136Z,95108.55
2018-04-24T12:59:41.461Z,95105.72
2018-04-24T13:02:44.732Z,95102.51
2018-04-24T13:05:48.058Z,95094.76
2018-04-24T13:08:51.334Z,95097.34
2018-04-24T13:11:54.618Z,95087.31
2018-04-24T13:14:58.742Z,95082.33
2018-04-24T13:18:02.760Z,95057.24
2018-04-24T13:21:07.951Z,95074.16
2018-04-24T13:24:11.391Z,95066.84
2018-04-24T13:27:15.520Z,95064.95
2018-04-24T13:30:18.778Z,95067.11
2018-04-24T13:33:22.842Z,95067.91
2018-04-24T13:36:26.121Z,95064.47
2018-04-24T13:39:30.146Z,95059.69
2018-04-24T13:42:33.479Z,95055.18
2018-04-24T13:45:36.758Z,95049.50
2018-04-24T13:48:40.063Z,95051.18
2018-04-24T13:51:43.360Z,95040.62
2018-04-24T13:54:46.632Z,95041.07
2018-04-24T13:57:51.868Z,95036.27
2018-04-24T14:00:55.424Z,95028.41
2018-04-24T14:03:59.794Z,95032.56
2018-04-24T14:07:04.125Z,95026.64
2018-04-24T14:10:07.450Z,95026.16
2018-04-24T14:13:10.733Z,95027.06
2018-04-24T14:16:14.057Z,95021.36
2018-04-24T14:19:17.331Z,95015.23
2018-04-24T14:22:20.684Z,95025.77
2018-04-24T14:25:23.949Z,95018.75
2018-04-24T14:28:27.318Z,95022.33
2018-04-24T14:31:31.354Z,95012.52
2018-04-24T14:34:34.618Z,95006.88
2018-04-24T14:37:38.691Z,95002.56
2018-04-24T14:40:42.029Z,95011.02
2018-04-24T14:43:46.066Z,95000.28
2018-04-24T14:46:50.091Z,95003.42
2018-04-24T14:49:53.903Z,94994.42
2018-04-24T14:52:57.194Z,94999.05
2018-04-24T14:56:00.474Z,94992.59
2018-04-24T14:59:04.595Z,94991.22
2018-04-24T15:02:08.643Z,94993.75
2018-04-24T15:05:11.907Z,94985.31
2018-04-24T15:08:16.261Z,94995.00
2018-04-24T15:11:20.388Z,94988.92
2018-04-24T15:14:23.779Z,94987.17
2018-04-24T15:17:27.154Z,94987.14
2018-04-24T15:20:30.456Z,94988.00
2018-04-24T15:23:34.609Z,94985.59
2018-04-24T15:26:38.023Z,94985.26
2018-04-24T15:29:41.456Z,94982.89
2018-04-24T15:32:45.485Z,94978.17
2018-04-24T15:35:48.741Z,94978.87
2018-04-24T15:38:52.794Z,94986.75
2018-04-24T15:41:56.066Z,94980.53
2018-04-24T15:44:59.324Z,94977.45
2018-04-24T15:48:02.646Z,94978.22
2018-04-24T15:51:05.919Z,94973.39
2018-04-24T15:54:09.277Z,94969.57
2018-04-24T15:57:13.545Z,94967.45
2018-04-24T16:00:16.804Z,94975.00
2018-04-24T16:03:20.194Z,94965.97
2018-04-24T16:06:24.671Z,94972.52
2018-04-24T16:09:27.970Z,94968.86
2018-04-24T16:12:31.233Z,94968.67
2018-04-24T16:15:34.535Z,94965.67
2018-04-24T16:18:37.818Z,94964.48
2018-04-24T16:21:41.329Z,94960.77
2018-04-24T16:24:44.703Z,94957.02
2018-04-24T16:27:48.733Z,94959.88
2018-04-24T16:30:52.250Z,94954.66
2018-04-24T16:33:55.844Z,94955.05
2018-04-24T16:36:59.193Z,94959.06
2018-04-24T16:40:03.252Z,94959.63
2018-04-24T16:43:07.282Z,94953.86
2018-04-24T16:46:10.716Z,94950.77
2018-04-24T16:49:14.001Z,94945.77
2018-04-24T16:52:17.332Z,94949.45
2018-04-24T16:55:20.603Z,94943.23
2018-04-24T16:58:23.901Z,94945.52
2018-04-24T17:01:27.154Z,94933.58
2018-04-24T17:04:31.302Z,94935.98
2018-04-24T17:07:34.670Z,94932.78
2018-04-24T17:10:38.717Z,94932.91
2018-04-24T17:13:42.174Z,94935.16
2018-04-24T17:16:46.216Z,94938.45
2018-04-24T17:19:49.546Z,94934.22
2018-04-24T17:22:53.105Z,94938.47
2018-04-24T17:25:58.202Z,94932.28
2018-04-24T17:29:02.303Z,94933.64
2018-04-24T17:32:05.647Z,94939.61
2018-04-24T17:35:09.933Z,94945.57
2018-04-24T17:38:13.256Z,94939.19
2018-04-24T17:41:16.545Z,94940.72
2018-04-24T17:44:20.044Z,94938.97
2018-04-24T17:47:23.471Z,94943.78
2018-04-24T17:50:26.760Z,94939.33
2018-04-24T17:53:30.171Z,94939.67
2018-04-24T17:56:34.218Z,94939.86
2018-04-24T17:59:51.222Z,94943.26
2018-04-24T18:02:55.509Z,94946.06
2018-04-24T18:06:06.348Z,94939.09
2018-04-24T18:09:09.792Z,94940.59
2018-04-24T18:12:13.887Z,94940.52
2018-04-24T18:15:17.207Z,94941.98
2018-04-24T18:18:20.533Z,94940.95
2018-04-24T18:21:24.614Z,94945.70
2018-04-24T18:24:27.934Z,94948.67
2018-04-24T18:27:32.000Z,94940.52
2018-04-24T18:30:35.279Z,94939.48
2018-04-24T18:33:39.303Z,94940.73
2018-04-24T18:36:42.582Z,94948.50
2018-04-24T18:39:46.942Z,94949.39
2018-04-24T18:42:50.273Z,94954.90
2018-04-24T18:45:54.302Z,94957.51
2018-04-24T18:48:57.560Z,94951.69
2018-04-24T18:52:00.810Z,94950.36
2018-04-24T18:55:04.844Z,94956.58
2018-04-24T18:58:08.153Z,94957.61
2018-04-24T19:01:11.430Z,94954.89
2018-04-24T19:04:14.743Z,94956.63
2018-04-24T19:07:18.016Z,94963.41
2018-04-24T19:10:22.298Z,94959.62
2018-04-24T19:13:25.653Z,94970.00
2018-04-24T19:16:28.959Z,94969.55
2018-04-24T19:19:33.031Z,94966.91
2018-04-24T19:22:38.209Z,94971.00
2018-04-24T19:25:43.333Z,94967.90
2018-04-24T19:28:47.154Z,94964.73
2018-04-24T19:31:55.792Z,94969.41
2018-04-24T19:34:59.216Z,94971.44
2018-04-24T19:38:03.280Z,94965.69
2018-04-24T19:41:12.861Z,94964.59
2018-04-24T19:44:16.116Z,94965.89
2018-04-24T19:47:21.062Z,94963.45
2018-04-24T19:50:25.299Z,94965.61
2018-04-24T19:53:28.623Z,94963.23
2018-04-24T19:56:31.874Z,94957.59
2018-04-24T19:59:45.456Z,94960.02
2018-04-24T20:02:48.787Z,94957.38
2018-04-24T20:05:52.841Z,94958.86
2018-04-24T20:08:56.106Z,94950.58
2018-04-24T20:11:59.776Z,94951.82
2018-04-24T20:15:03.093Z,94953.97
2018-04-24T20:18:06.356Z,94945.39
2018-04-24T20:21:09.662Z,94942.25
2018-04-24T20:24:12.933Z,94943.57
2018-04-24T20:27:16.195Z,94941.52
2018-04-24T20:30:19.476Z,94932.63
2018-04-24T20:33:22.729Z,94937.38
2018-04-24T20:36:26.014Z,94935.02
2018-04-24T20:39:29.296Z,94939.87
2018-04-24T20:42:32.585Z,94940.05
2018-04-24T20:45:35.857Z,94938.11
2018-04-24T20:48:39.123Z,94935.50
2018-04-24T20:51:43.187Z,94928.95
2018-04-24T20:54:46.547Z,94931.78
2018-04-24T20:57:49.817Z,94931.03
2018-04-24T21:00:53.076Z,94929.99
2018-04-24T21:03:56.437Z,94926.55
2018-04-24T21:07:00.485Z,94923.52
2018-04-24T21:10:03.891Z,94927.70
2018-04-24T21:13:07.256Z,94925.44
2018-04-24T21:16:10.457Z,94922.02
2018-04-24T21:19:13.725Z,94922.70
2018-04-24T21:22:16.996Z,94923.92
2018-04-24T21:25:20.319Z,94919.66
2018-04-24T21:28:23.571Z,94926.84
2018-04-24T21:31:26.853Z,94920.70
2018-04-24T21:34:30.882Z,94920.31
2018-04-24T21:37:34.133Z,94912.94
2018-04-24T21:40:37.398Z,94907.16
2018-04-24T21:43:40.668Z,94903.88
2018-04-24T21:46:43.929Z,94900.53
2018-04-24T21:49:47.185Z,94896.26
2018-04-24T21:52:50.514Z,94894.50
2018-04-24T21:55:53.816Z,94890.22
2018-04-24T21:58:57.079Z,94895.06
2018-04-24T22:02:00.359Z,94890.56
2018-04-24T22:05:03.638Z,94887.25
2018-04-24T22:08:08.341Z,94885.19
2018-04-24T22:11:11.603Z,94888.80
2018-04-24T22:14:14.867Z,94887.30
2018-04-24T22:17:18.903Z,94886.37
2018-04-24T22:20:22.163Z,94883.49
2018-04-24T22:23:26.666Z,94885.81
2018-04-24T22:26:29.938Z,94881.16
2018-04-24T22:29:33.356Z,94878.11
2018-04-24T22:32:36.611Z,94880.39
2018-04-24T22:35:39.951Z,94883.88
2018-04-24T22:38:43.208Z,94885.82
2018-04-24T22:41:46.529Z,94881.05
2018-04-24T22:44:49.722Z,94873.39
2018-04-24T22:47:52.973Z,94879.81
2018-04-24T22:50:56.995Z,94869.93
2018-04-24T22:54:01.076Z,94865.55
2018-04-24T22:57:04.336Z,94873.78
2018-04-24T23:00:08.474Z,94879.20
2018-04-24T23:03:11.831Z,94871.72
2018-04-24T23:06:15.134Z,94870.65
2018-04-24T23:09:18.392Z,94873.53
2018-04-24T23:12:39.510Z,94873.26
2018-04-24T23:16:00.270Z,94872.75
2018-04-24T23:19:21.247Z,94866.13
2018-04-24T23:22:30.019Z,94867.59
2018-04-24T23:25:33.277Z,94861.60
2018-04-24T23:28:37.299Z,94856.41
2018-04-24T23:31:40.589Z,94856.09
2018-04-24T23:34:44.611Z,94853.91
2018-04-24T23:37:48.626Z,94853.42
2018-04-24T23:40:52.691Z,94848.76
2018-04-24T23:43:55.947Z,94840.66
2018-04-24T23:46:59.256Z,94839.05
2018-04-24T23:50:02.523Z,94836.28
2018-04-24T23:53:06.549Z,94827.15
2018-04-24T23:56:10.577Z,94829.28
2018-04-24T23:59:13.846Z,94829.45
